createdAt,value
2023-04-18T00:03:15.798Z,97776.47
2023-04-18T00:07:19.237Z,97773.84
2023-04-18T00:11:23.751Z,97764.28
2023-04-18T00:15:26.507Z,97767.97
2023-04-18T00:19:29.520Z,97758.63
2023-04-18T00:23:34.295Z,97761.47
2023-04-18T00:27:38.993Z,97759.34
2023-04-18T00:31:41.628Z,97755.00
2023-04-18T00:35:44.420Z,97756.81
2023-04-18T00:39:47.051Z,97766.25
2023-04-18T00:43:51.005Z,97761.59
2023-04-18T00:47:53.723Z,97761.75
2023-04-18T00:51:57.576Z,97767.66
2023-04-18T00:56:00.373Z,97766.19
2023-04-18T01:00:09.261Z,97767.72
2023-04-18T01:04:11.984Z,97760.00
2023-04-18T01:08:15.326Z,97761.69
2023-04-18T01:12:17.926Z,97755.00
2023-04-18T01:16:22.220Z,97752.00
2023-04-18T01:20:26.325Z,97751.34
2023-04-18T01:24:31.934Z,97756.22
2023-04-18T01:28:37.869Z,97755.56
2023-04-18T01:32:40.679Z,97763.50
2023-04-18T01:36:43.503Z,97756.13
2023-04-18T01:40:47.782Z,97757.47
2023-04-18T01:44:50.422Z,97762.53
2023-04-18T01:48:53.127Z,97760.56
2023-04-18T01:52:55.912Z,97767.41
2023-04-18T01:56:59.840Z,97756.03
2023-04-18T02:01:02.731Z,97757.03
2023-04-18T02:05:05.895Z,97749.19
2023-04-18T02:09:08.526Z,97757.69
2023-04-18T02:13:12.459Z,97745.84
2023-04-18T02:17:15.110Z,97748.69
2023-04-18T02:21:17.738Z,97756.06
2023-04-18T02:25:23.532Z,97758.75
2023-04-18T02:29:27.925Z,97760.22
2023-04-18T02:33:30.577Z,97756.72
2023-04-18T02:37:33.532Z,97762.41
2023-04-18T02:41:37.668Z,97760.09
2023-04-18T02:45:41.715Z,97761.44
2023-04-18T02:49:44.396Z,97757.91
2023-04-18T02:53:46.994Z,97755.75
2023-04-18T02:57:49.590Z,97755.75
2023-04-18T03:01:53.613Z,97749.91
2023-04-18T03:05:57.059Z,97752.06
2023-04-18T03:09:59.962Z,97760.28
2023-04-18T03:14:02.669Z,97755.59
2023-04-18T03:18:07.056Z,97754.56
2023-04-18T03:22:10.049Z,97747.06
2023-04-18T03:26:13.832Z,97752.41
2023-04-18T03:30:18.272Z,97751.22
2023-04-18T03:34:22.275Z,97749.91
2023-04-18T03:38:24.883Z,97754.44
2023-04-18T03:42:27.637Z,97749.25
2023-04-18T03:46:30.597Z,97752.09
2023-04-18T03:50:34.705Z,97750.59
2023-04-18T03:54:37.548Z,97752.09
2023-04-18T03:58:40.512Z,97764.66
2023-04-18T04:02:43.391Z,97773.03
2023-04-18T04:06:47.649Z,97785.78
2023-04-18T04:10:52.771Z,97776.91
2023-04-18T04:14:55.695Z,97772.91
2023-04-18T04:18:59.081Z,97776.56
2023-04-18T04:23:03.084Z,97787.28
2023-04-18T04:27:06.201Z,97783.78
2023-04-18T04:31:10.192Z,97787.13
2023-04-18T04:35:12.870Z,97787.63
2023-04-18T04:39:17.922Z,97791.31
2023-04-18T04:43:20.585Z,97795.66
2023-04-18T04:47:23.301Z,97795.13
2023-04-18T04:51:26.106Z,97793.47
2023-04-18T04:55:31.014Z,97786.28
2023-04-18T04:59:33.620Z,97779.38
2023-04-18T05:03:36.674Z,97798.50
2023-04-18T05:07:39.550Z,97797.31
2023-04-18T05:11:43.581Z,97795.44
2023-04-18T05:15:46.288Z,97795.13
2023-04-18T05:19:48.895Z,97797.91
2023-04-18T05:23:51.508Z,97811.78
2023-04-18T05:27:55.506Z,97806.88
2023-04-18T05:31:58.230Z,97802.94
2023-04-18T05:36:01.006Z,97808.75
2023-04-18T05:40:05.070Z,97806.69
2023-04-18T05:44:09.097Z,97806.34
2023-04-18T05:48:12.023Z,97796.59
2023-04-18T05:52:14.736Z,97806.19
2023-04-18T05:56:17.497Z,97805.63
2023-04-18T06:00:21.984Z,97811.97
2023-04-18T06:04:24.892Z,97821.06
2023-04-18T06:08:27.737Z,97811.53
2023-04-18T06:12:30.718Z,97816.47
2023-04-18T06:16:34.837Z,97824.75
2023-04-18T06:20:37.513Z,97838.78
2023-04-18T06:24:40.149Z,97824.69
2023-04-18T06:28:42.949Z,97837.31
2023-04-18T06:32:47.047Z,97836.84
2023-04-18T06:36:49.955Z,97841.38
2023-04-18T06:40:52.654Z,97840.66
2023-04-18T06:44:55.878Z,97838.03
2023-04-18T06:49:00.006Z,97837.97
2023-04-18T06:53:02.722Z,97841.47
2023-04-18T06:57:05.968Z,97840.47
2023-04-18T07:01:08.714Z,97836.72
2023-04-18T07:05:12.921Z,97840.47
2023-04-18T07:09:15.636Z,97848.44
2023-04-18T07:13:18.357Z,97839.13
2023-04-18T07:17:21.369Z,97843.69
2023-04-18T07:21:25.685Z,97851.66
2023-04-18T07:25:28.360Z,97845.13
2023-04-18T07:29:31.090Z,97840.19
2023-04-18T07:33:35.085Z,97846.50
2023-04-18T07:37:39.534Z,97839.78
2023-04-18T07:41:42.329Z,97841.78
2023-04-18T07:45:45.202Z,97843.38
2023-04-18T07:49:48.008Z,97847.31
2023-04-18T07:53:52.218Z,97834.19
2023-04-18T07:57:54.886Z,97842.59
2023-04-18T08:01:57.619Z,97846.66
2023-04-18T08:06:01.798Z,97853.63
2023-04-18T08:10:06.936Z,97853.91
2023-04-18T08:14:09.798Z,97852.72
2023-04-18T08:18:12.588Z,97851.53
2023-04-18T08:22:15.329Z,97851.75
2023-04-18T08:26:19.713Z,97851.38
2023-04-18T08:30:22.528Z,97854.31
2023-04-18T08:34:25.580Z,97858.97
2023-04-18T08:38:28.364Z,97857.59
2023-04-18T08:42:33.247Z,97855.78
2023-04-18T08:46:37.252Z,97859.81
2023-04-18T08:50:40.004Z,97865.66
2023-04-18T08:54:44.068Z,97861.06
2023-04-18T08:58:48.131Z,97873.13
2023-04-18T09:02:55.175Z,97870.97
2023-04-18T09:06:57.888Z,97875.19
2023-04-18T09:11:21.893Z,97879.31
2023-04-18T09:15:29.921Z,97878.13
2023-04-18T09:19:33.840Z,97880.03
2023-04-18T09:23:38.570Z,97875.25
2023-04-18T09:27:41.168Z,97878.78
2023-04-18T09:31:57.382Z,97881.72
2023-04-18T09:36:18.754Z,97882.75
2023-04-18T09:40:22.199Z,97880.88
2023-04-18T09:44:24.930Z,97886.44
2023-04-18T09:48:29.873Z,97884.34
2023-04-18T09:52:35.286Z,97883.88
2023-04-18T09:56:39.905Z,97883.06
2023-04-18T10:00:45.670Z,97882.28
2023-04-18T10:04:51.947Z,97887.97
2023-04-18T10:08:56.112Z,97885.47
2023-04-18T10:13:00.871Z,97881.50
2023-04-18T10:17:03.746Z,97875.44
2023-04-18T10:21:10.256Z,97876.50
2023-04-18T10:25:13.878Z,97873.81
2023-04-18T10:29:18.182Z,97879.34
2023-04-18T10:33:31.059Z,97867.91
2023-04-18T10:37:36.857Z,97858.16
2023-04-18T10:41:50.977Z,97865.88
2023-04-18T10:46:31.096Z,97859.91
2023-04-18T10:50:35.327Z,97857.25
2023-04-18T10:54:47.832Z,97854.75
2023-04-18T10:58:52.447Z,97855.78
2023-04-18T11:02:57.770Z,97844.13
2023-04-18T11:07:00.694Z,97841.94
2023-04-18T11:11:08.997Z,97852.00
2023-04-18T11:15:14.287Z,97846.25
2023-04-18T11:19:21.768Z,97848.66
2023-04-18T11:23:25.167Z,97856.75
2023-04-18T11:27:30.946Z,97852.03
2023-04-18T11:31:33.680Z,97850.16
2023-04-18T11:35:39.446Z,97845.94
2023-04-18T11:39:42.189Z,97850.00
2023-04-18T11:43:47.551Z,97854.22
2023-04-18T11:47:51.438Z,97846.63
2023-04-18T11:51:54.216Z,97853.25
2023-04-18T11:55:57.826Z,97851.50
2023-04-18T12:00:02.363Z,97843.28
2023-04-18T12:04:06.691Z,97844.53
2023-04-18T12:08:11.387Z,97844.09
2023-04-18T12:12:20.148Z,97847.28
2023-04-18T12:16:28.277Z,97837.75
2023-04-18T12:20:36.444Z,97840.88
2023-04-18T12:24:39.141Z,97848.47
2023-04-18T12:28:46.328Z,97842.88
2023-04-18T12:32:55.839Z,97846.09
2023-04-18T12:36:58.563Z,97841.50
2023-04-18T12:41:01.209Z,97838.38
2023-04-18T12:45:07.645Z,97842.13
2023-04-18T12:49:11.738Z,97838.41
2023-04-18T12:53:14.796Z,97839.34
2023-04-18T12:57:18.787Z,97846.09
2023-04-18T13:01:21.502Z,97841.84
2023-04-18T13:05:29.782Z,97831.00
2023-04-18T13:09:33.549Z,97830.50
2023-04-18T13:13:37.130Z,97823.03
2023-04-18T13:17:40.803Z,97826.16
2023-04-18T13:21:46.450Z,97821.84
2023-04-18T13:25:49.957Z,97824.28
2023-04-18T13:29:52.686Z,97821.84
2023-04-18T13:33:55.382Z,97814.34
2023-04-18T13:37:59.349Z,97823.47
2023-04-18T13:42:03.396Z,97830.69
2023-04-18T13:46:06.440Z,97824.31
2023-04-18T13:50:11.765Z,97843.16
2023-04-18T13:54:16.769Z,97839.97
2023-04-18T13:58:20.512Z,97832.97
2023-04-18T14:02:23.326Z,97840.59
2023-04-18T14:06:27.783Z,97840.38
2023-04-18T14:10:32.597Z,97838.16
2023-04-18T14:14:35.300Z,97838.63
2023-04-18T14:18:39.372Z,97843.69
2023-04-18T14:22:42.103Z,97831.72
2023-04-18T14:26:46.275Z,97839.19
2023-04-18T14:30:49.842Z,97843.78
2023-04-18T14:34:52.596Z,97844.06
2023-04-18T14:38:55.767Z,97838.25
2023-04-18T14:42:59.765Z,97841.00
2023-04-18T14:47:02.633Z,97839.91
2023-04-18T14:51:06.860Z,97850.22
2023-04-18T14:55:11.708Z,97846.06
2023-04-18T14:59:16.850Z,97842.91
2023-04-18T15:03:19.971Z,97839.97
2023-04-18T15:07:22.746Z,97847.47
2023-04-18T15:11:27.089Z,97846.41
2023-04-18T15:15:34.868Z,97851.06
2023-04-18T15:19:37.561Z,97856.94
2023-04-18T15:23:40.194Z,97851.28
2023-04-18T15:27:42.870Z,97852.16
2023-04-18T15:31:47.010Z,97860.06
2023-04-18T15:35:49.694Z,97858.59
2023-04-18T15:39:52.603Z,97864.22
2023-04-18T15:43:55.252Z,97861.28
2023-04-18T15:47:59.489Z,97857.53
2023-04-18T15:52:03.696Z,97860.88
2023-04-18T15:56:06.673Z,97874.19
2023-04-18T16:00:16.031Z,97877.13
2023-04-18T16:04:20.129Z,97881.06
2023-04-18T16:08:22.768Z,97884.81
2023-04-18T16:12:25.705Z,97883.25
2023-04-18T16:16:29.439Z,97886.38
2023-04-18T16:20:33.746Z,97894.88
2023-04-18T16:24:36.501Z,97892.56
2023-04-18T16:28:39.219Z,97896.09
2023-04-18T16:32:41.930Z,97899.41
2023-04-18T16:36:45.962Z,97891.75
2023-04-18T16:40:48.630Z,97887.16
2023-04-18T16:44:52.616Z,97885.91
2023-04-18T16:48:55.615Z,97895.25
2023-04-18T16:52:59.686Z,97895.00
2023-04-18T16:57:02.859Z,97899.34
2023-04-18T17:01:07.952Z,97893.94
2023-04-18T17:05:11.180Z,97898.09
2023-04-18T17:09:15.374Z,97908.72
2023-04-18T17:13:18.087Z,97912.03
2023-04-18T17:17:20.816Z,97915.22
2023-04-18T17:21:23.467Z,97915.84
2023-04-18T17:25:27.690Z,97920.63
2023-04-18T17:29:30.480Z,97917.09
2023-04-18T17:33:33.231Z,97921.41
2023-04-18T17:37:36.670Z,97920.94
2023-04-18T17:41:41.090Z,97922.38
2023-04-18T17:45:44.159Z,97931.75
2023-04-18T17:49:46.877Z,97930.66
2023-04-18T17:53:49.500Z,97932.09
2023-04-18T17:57:53.528Z,97931.00
2023-04-18T18:01:56.406Z,97928.00
2023-04-18T18:05:59.223Z,97938.19
2023-04-18T18:10:02.408Z,97944.41
2023-04-18T18:14:06.571Z,97935.94
2023-04-18T18:18:09.561Z,97946.28
2023-04-18T18:22:12.457Z,97955.66
2023-04-18T18:26:15.172Z,97958.69
2023-04-18T18:30:20.370Z,97969.94
2023-04-18T18:34:23.679Z,97960.09
2023-04-18T18:38:26.445Z,97971.03
2023-04-18T18:42:29.160Z,97973.06
2023-04-18T18:46:33.404Z,97974.94
2023-04-18T18:50:36.140Z,97969.88
2023-04-18T18:54:38.853Z,97980.09
2023-04-18T18:58:43.688Z,97983.53
2023-04-18T19:02:47.937Z,97983.69
2023-04-18T19:06:50.959Z,97982.22
2023-04-18T19:10:53.712Z,97986.78
2023-04-18T19:14:56.342Z,97979.50
2023-04-18T19:19:01.259Z,97984.06
2023-04-18T19:23:04.074Z,97984.00
2023-04-18T19:27:06.767Z,97990.44
2023-04-18T19:31:09.632Z,97991.91
2023-04-18T19:35:13.773Z,97987.72
2023-04-18T19:39:17.390Z,97984.63
2023-04-18T19:43:20.097Z,97982.38
2023-04-18T19:47:23.615Z,97984.53
2023-04-18T19:51:28.762Z,97991.97
2023-04-18T19:55:31.592Z,98000.63
2023-04-18T19:59:34.297Z,97998.13
2023-04-18T20:03:37.086Z,97996.66
2023-04-18T20:07:41.609Z,97993.03
2023-04-18T20:11:44.479Z,97991.19
2023-04-18T20:15:47.239Z,97997.22
2023-04-18T20:19:51.600Z,97987.22
2023-04-18T20:23:56.596Z,97989.91
2023-04-18T20:27:59.430Z,97999.00
2023-04-18T20:32:02.076Z,97988.22
2023-04-18T20:36:05.456Z,98004.22
2023-04-18T20:40:11.302Z,97992.38
2023-04-18T20:44:14.011Z,97990.09
2023-04-18T20:48:16.582Z,97995.81
2023-04-18T20:52:19.222Z,97991.84
2023-04-18T20:56:23.190Z,97997.16
2023-04-18T21:00:25.947Z,97982.00
2023-04-18T21:04:28.622Z,97985.50
2023-04-18T21:08:32.168Z,97990.09
2023-04-18T21:12:36.144Z,97989.44
2023-04-18T21:16:39.638Z,97990.66
2023-04-18T21:20:42.460Z,97982.94
2023-04-18T21:24:45.188Z,97980.88
2023-04-18T21:28:57.184Z,97986.66
2023-04-18T21:32:59.857Z,97997.06
2023-04-18T21:37:02.517Z,97993.25
2023-04-18T21:41:05.157Z,97990.13
2023-04-18T21:45:11.136Z,97997.94
2023-04-18T21:49:13.775Z,97994.88
2023-04-18T21:53:16.388Z,97992.00
2023-04-18T21:57:19.044Z,97994.69
2023-04-18T22:01:23.096Z,97993.47
2023-04-18T22:05:26.305Z,97980.34
2023-04-18T22:09:29.625Z,97992.81
2023-04-18T22:13:33.086Z,97995.16
2023-04-18T22:17:38.005Z,97983.06
2023-04-18T22:21:40.630Z,97982.88
2023-04-18T22:25:43.304Z,97965.03
2023-04-18T22:29:45.917Z,97973.78
2023-04-18T22:33:49.881Z,97961.78
2023-04-18T22:37:52.593Z,97965.13
2023-04-18T22:41:55.256Z,97965.94
2023-04-18T22:45:57.964Z,97960.75
2023-04-18T22:50:01.940Z,97958.06
2023-04-18T22:54:04.786Z,97961.13
2023-04-18T22:58:07.768Z,97957.59
2023-04-18T23:02:10.627Z,97964.66
2023-04-18T23:06:14.742Z,97963.66
2023-04-18T23:10:17.493Z,97960.75
2023-04-18T23:14:21.453Z,97960.56
2023-04-18T23:18:24.103Z,97956.19
2023-04-18T23:22:28.900Z,97952.03
2023-04-18T23:26:31.504Z,97955.56
2023-04-18T23:30:36.358Z,97953.22
2023-04-18T23:34:38.965Z,97951.94
2023-04-18T23:38:43.261Z,97949.00
2023-04-18T23:42:45.872Z,97956.22
2023-04-18T23:46:48.586Z,97959.94
2023-04-18T23:50:52.843Z,97957.78
2023-04-18T23:54:59.620Z,97950.34
2023-04-18T23:59:02.275Z,97941.25
